Terminal Aerodrome Forecast
Issued by NWS

Home | Current Version | Previous Version | Text Only | Print | Product List | Glossary On
Versions: 1 2 3 4 5 6 7 8 9 10 11 12 13 14 15 16 17 18
555
FTUS42 KMHX 261720
TAFOAJ
TAF
KOAJ 261720Z 2618/2718 07006KT P6SM SCT030
     FM270700 00000KT 5SM BR FEW008
     FM271200 00000KT P6SM SKC
     FM271700 VRB03KT P6SM SCT050
      AMD LTD TO CLD VIS AND WIND=

USA.gov is the U.S. government's official web portal to all federal, state and local government web resources and services.